Terminal Aerodrome Forecast
Issued by NWS

Home | Current Version | Previous Version | Text Only | Print | Product List | Glossary On
Versions: 1 2 3 4 5 6 7 8 9 10 11 12 13 14 15 16 17 18 19 20 21 22 23 24 25
000
FTUS43 KDLH 192340
TAFHIB
TAF
KHIB 192340Z 2000/2024 31008KT P6SM SCT035 BKN060
     FM200200 31005KT P6SM SCT020 BKN060
     FM200700 VRB03KT 6SM BR VCSH BKN050
      TEMPO 2007/2011 5SM -SHRA BR SCT020 BKN035
     FM201300 33006KT P6SM SCT090=

USA.gov is the U.S. government's official web portal to all federal, state and local government web resources and services.